KNGHT41 EGXW-EGXW
Flight info
| Callsign | KNGHT41 |
|---|---|
| Flight time | N/A |
| Altitude | 19000 |
| Route | CGY OTR 1602 ERKIT N110 UNTAL UP18 NATEB EGNT POL WAD EDPAZ |
| Aircraft | B350/L-V/N |
Departure
| Time | 2026-05-06 16:50 |
|---|---|
| Airport | RAF Waddington (EGXW) |
Arrival
| Time | N/A |
|---|---|
| Airport | RAF Waddington (EGXW) |
| Time | Latitude | Longitude | Altitude | Speed | Heading |
|---|---|---|---|---|---|
| 2026-05-06 16:39 | 53.17021 | -0.52940 | 240 ft | 0 kts | 2° |
| 2026-05-06 16:44 | 53.17042 | -0.52922 | 240 ft | 4 kts | 55° |
| 2026-05-06 16:44 | 53.17033 | -0.52869 | 239 ft | 10 kts | 147° |
| 2026-05-06 16:44 | 53.16921 | -0.52911 | 237 ft | 21 kts | 180° |
| 2026-05-06 16:45 | 53.16778 | -0.52883 | 233 ft | 20 kts | 171° |
| 2026-05-06 16:45 | 53.16641 | -0.52853 | 231 ft | 19 kts | 172° |
| 2026-05-06 16:45 | 53.16513 | -0.52819 | 230 ft | 18 kts | 170° |
| 2026-05-06 16:45 | 53.16387 | -0.52818 | 229 ft | 20 kts | 201° |
| 2026-05-06 16:46 | 53.16249 | -0.52919 | 228 ft | 23 kts | 212° |
| 2026-05-06 16:46 | 53.16104 | -0.53035 | 226 ft | 24 kts | 201° |
| 2026-05-06 16:46 | 53.15947 | -0.53138 | 223 ft | 24 kts | 201° |
| 2026-05-06 16:46 | 53.15792 | -0.53241 | 223 ft | 24 kts | 201° |
| 2026-05-06 16:47 | 53.15650 | -0.53335 | 227 ft | 19 kts | 200° |
| 2026-05-06 16:47 | 53.15536 | -0.53313 | 226 ft | 12 kts | 145° |
| 2026-05-06 16:47 | 53.15525 | -0.53296 | 226 ft | 0 kts | 135° |
| 2026-05-06 16:48 | 53.15524 | -0.53296 | 226 ft | 0 kts | 137° |
| 2026-05-06 16:48 | 53.15500 | -0.53250 | 225 ft | 21 kts | 120° |
| 2026-05-06 16:49 | 53.15512 | -0.53115 | 227 ft | 13 kts | 22° |
| 2026-05-06 16:49 | 53.15517 | -0.53111 | 227 ft | 0 kts | 21° |
| 2026-05-06 16:50 | 53.15602 | -0.53055 | 223 ft | 53 kts | 23° |
| 2026-05-06 16:50 | 53.16244 | -0.52641 | 254 ft | 135 kts | 24° |
| 2026-05-06 16:50 | 53.17225 | -0.52053 | 766 ft | 163 kts | 22° |
| 2026-05-06 16:50 | 53.18369 | -0.51397 | 1347 ft | 185 kts | 23° |
| 2026-05-06 16:51 | 53.19315 | -0.49911 | 1820 ft | 201 kts | 65° |
| 2026-05-06 16:51 | 53.19301 | -0.47552 | 2295 ft | 217 kts | 109° |
| 2026-05-06 16:51 | 53.18261 | -0.45688 | 2774 ft | 229 kts | 145° |
| 2026-05-06 16:51 | 53.16852 | -0.44430 | 3247 ft | 235 kts | 150° |
| 2026-05-06 16:52 | 53.15396 | -0.43166 | 3700 ft | 236 kts | 148° |
| 2026-05-06 16:52 | 53.14243 | -0.41313 | 4173 ft | 232 kts | 118° |
| 2026-05-06 16:52 | 53.13659 | -0.38830 | 4652 ft | 232 kts | 104° |
| 2026-05-06 16:52 | 53.13220 | -0.36237 | 5116 ft | 234 kts | 105° |
| 2026-05-06 16:53 | 53.12689 | -0.33655 | 5580 ft | 237 kts | 109° |
| 2026-05-06 16:53 | 53.12123 | -0.31064 | 6046 ft | 239 kts | 109° |
| 2026-05-06 16:53 | 53.11565 | -0.28445 | 6520 ft | 241 kts | 109° |
| 2026-05-06 16:53 | 53.11014 | -0.25846 | 6954 ft | 236 kts | 109° |
| 2026-05-06 16:54 | 53.10470 | -0.23282 | 7402 ft | 234 kts | 108° |
| 2026-05-06 16:54 | 53.10223 | -0.20655 | 7865 ft | 229 kts | 79° |
| 2026-05-06 16:54 | 53.10840 | -0.18280 | 8335 ft | 223 kts | 47° |
| 2026-05-06 16:54 | 53.12060 | -0.16804 | 8824 ft | 215 kts | 16° |
| 2026-05-06 16:55 | 53.13515 | -0.16426 | 9307 ft | 211 kts | 360° |
| 2026-05-06 16:55 | 53.14986 | -0.16279 | 9785 ft | 212 kts | 0° |
| 2026-05-06 16:55 | 53.16462 | -0.16119 | 10234 ft | 213 kts | 0° |
| 2026-05-06 16:55 | 53.17924 | -0.15966 | 10664 ft | 213 kts | 359° |
| 2026-05-06 16:56 | 53.19406 | -0.15810 | 11107 ft | 214 kts | 360° |
| 2026-05-06 16:56 | 53.20897 | -0.15657 | 11558 ft | 215 kts | 360° |
| 2026-05-06 16:56 | 53.22397 | -0.15497 | 12007 ft | 217 kts | 360° |
| 2026-05-06 16:56 | 53.23904 | -0.15335 | 12464 ft | 218 kts | 360° |
| 2026-05-06 16:57 | 53.25420 | -0.15170 | 12935 ft | 218 kts | 360° |
| 2026-05-06 16:57 | 53.26943 | -0.15010 | 13408 ft | 220 kts | 359° |
| 2026-05-06 16:57 | 53.28473 | -0.14848 | 13887 ft | 221 kts | 360° |
| 2026-05-06 16:57 | 53.30011 | -0.14683 | 14312 ft | 222 kts | 359° |
| 2026-05-06 16:58 | 53.31558 | -0.14518 | 14743 ft | 223 kts | 359° |
| 2026-05-06 16:58 | 53.33110 | -0.14352 | 15187 ft | 224 kts | 359° |
| 2026-05-06 16:58 | 53.34669 | -0.14186 | 15633 ft | 225 kts | 359° |
| 2026-05-06 16:58 | 53.36234 | -0.14016 | 16084 ft | 226 kts | 359° |
| 2026-05-06 16:59 | 53.37803 | -0.13848 | 16545 ft | 226 kts | 359° |
| 2026-05-06 16:59 | 53.39377 | -0.13680 | 17010 ft | 227 kts | 359° |
| 2026-05-06 16:59 | 53.40956 | -0.13510 | 17487 ft | 228 kts | 359° |
| 2026-05-06 16:59 | 53.42542 | -0.13341 | 17970 ft | 229 kts | 359° |
| 2026-05-06 17:00 | 53.44132 | -0.13168 | 18440 ft | 229 kts | 359° |
| 2026-05-06 17:00 | 53.45726 | -0.12997 | 18856 ft | 230 kts | 359° |
| 2026-05-06 17:00 | 53.47372 | -0.12824 | 19017 ft | 244 kts | 359° |
| 2026-05-06 17:00 | 53.49117 | -0.12636 | 19047 ft | 258 kts | 359° |
| 2026-05-06 17:01 | 53.50941 | -0.12440 | 19054 ft | 269 kts | 359° |
| 2026-05-06 17:01 | 53.52829 | -0.12235 | 19053 ft | 276 kts | 359° |
| 2026-05-06 17:01 | 53.54770 | -0.12024 | 19055 ft | 281 kts | 359° |
| 2026-05-06 17:01 | 53.56712 | -0.11812 | 19056 ft | 284 kts | 360° |
| 2026-05-06 17:02 | 53.58697 | -0.11597 | 19056 ft | 287 kts | 360° |
| 2026-05-06 17:02 | 53.60695 | -0.11381 | 19053 ft | 288 kts | 360° |
| 2026-05-06 17:02 | 53.62703 | -0.11162 | 19056 ft | 289 kts | 360° |
| 2026-05-06 17:02 | 53.64714 | -0.10943 | 19057 ft | 290 kts | 360° |
| 2026-05-06 17:03 | 53.66733 | -0.10724 | 19054 ft | 291 kts | 360° |
| 2026-05-06 17:03 | 53.68736 | -0.10869 | 19060 ft | 285 kts | 341° |
| 2026-05-06 17:03 | 53.70490 | -0.12297 | 19050 ft | 279 kts | 319° |
| 2026-05-06 17:03 | 53.71785 | -0.14611 | 19051 ft | 275 kts | 305° |
| 2026-05-06 17:04 | 53.72961 | -0.17157 | 19050 ft | 275 kts | 305° |
| 2026-05-06 17:04 | 53.74137 | -0.19710 | 19052 ft | 275 kts | 305° |
| 2026-05-06 17:04 | 53.75313 | -0.22263 | 19059 ft | 275 kts | 305° |
| 2026-05-06 17:04 | 53.76490 | -0.24817 | 19052 ft | 275 kts | 305° |
| 2026-05-06 17:05 | 53.77668 | -0.27370 | 19052 ft | 276 kts | 305° |
| 2026-05-06 17:05 | 53.78846 | -0.29929 | 19055 ft | 276 kts | 305° |
| 2026-05-06 17:05 | 53.80022 | -0.32487 | 19054 ft | 276 kts | 305° |
| 2026-05-06 17:05 | 53.81199 | -0.35048 | 19052 ft | 276 kts | 305° |
| 2026-05-06 17:06 | 53.82375 | -0.37611 | 19055 ft | 276 kts | 305° |
| 2026-05-06 17:06 | 53.83552 | -0.40178 | 19050 ft | 276 kts | 305° |
| 2026-05-06 17:06 | 53.84726 | -0.42743 | 19050 ft | 276 kts | 305° |
| 2026-05-06 17:06 | 53.85901 | -0.45308 | 19055 ft | 275 kts | 305° |
| 2026-05-06 17:07 | 53.87072 | -0.47873 | 19056 ft | 275 kts | 305° |
| 2026-05-06 17:07 | 53.88246 | -0.50441 | 19058 ft | 275 kts | 305° |
| 2026-05-06 17:07 | 53.89415 | -0.53007 | 19060 ft | 275 kts | 305° |
| 2026-05-06 17:07 | 53.90587 | -0.55578 | 19058 ft | 275 kts | 305° |
| 2026-05-06 17:08 | 53.91757 | -0.58148 | 19055 ft | 275 kts | 305° |
| 2026-05-06 17:08 | 53.92925 | -0.60717 | 19055 ft | 275 kts | 305° |
| 2026-05-06 17:08 | 53.94092 | -0.63287 | 19055 ft | 275 kts | 305° |
| 2026-05-06 17:08 | 53.95261 | -0.65860 | 19055 ft | 275 kts | 305° |
| 2026-05-06 17:09 | 53.96393 | -0.68357 | 19054 ft | 275 kts | 305° |
| 2026-05-06 17:09 | 53.97575 | -0.70970 | 19058 ft | 275 kts | 305° |
| 2026-05-06 17:09 | 53.98718 | -0.73495 | 19055 ft | 275 kts | 305° |
| 2026-05-06 17:09 | 53.99899 | -0.76108 | 19056 ft | 275 kts | 305° |
| 2026-05-06 17:10 | 54.01064 | -0.78688 | 19059 ft | 275 kts | 305° |
| 2026-05-06 17:10 | 54.02223 | -0.81260 | 19055 ft | 275 kts | 305° |
| 2026-05-06 17:10 | 54.03517 | -0.83648 | 19059 ft | 278 kts | 320° |
| 2026-05-06 17:10 | 54.05123 | -0.85495 | 19052 ft | 279 kts | 322° |
| 2026-05-06 17:11 | 54.06676 | -0.87321 | 19053 ft | 279 kts | 321° |
| 2026-05-06 17:11 | 54.08299 | -0.89259 | 19053 ft | 278 kts | 322° |
| 2026-05-06 17:11 | 54.09891 | -0.91140 | 19056 ft | 278 kts | 322° |
| 2026-05-06 17:11 | 54.11482 | -0.93018 | 19055 ft | 278 kts | 322° |
| 2026-05-06 17:12 | 54.13072 | -0.94899 | 19055 ft | 278 kts | 322° |
| 2026-05-06 17:12 | 54.14666 | -0.96790 | 19057 ft | 278 kts | 322° |
| 2026-05-06 17:12 | 54.16255 | -0.98675 | 19057 ft | 278 kts | 322° |
| 2026-05-06 17:12 | 54.17844 | -1.00562 | 19057 ft | 278 kts | 322° |
| 2026-05-06 17:13 | 54.19361 | -1.02364 | 19056 ft | 278 kts | 322° |
| 2026-05-06 17:13 | 54.21004 | -1.04320 | 19057 ft | 278 kts | 321° |
| 2026-05-06 17:13 | 54.22525 | -1.06131 | 19059 ft | 278 kts | 321° |
| 2026-05-06 17:13 | 54.24170 | -1.08091 | 19057 ft | 278 kts | 321° |
| 2026-05-06 17:14 | 54.25685 | -1.09899 | 19059 ft | 278 kts | 321° |
| 2026-05-06 17:14 | 54.27315 | -1.11845 | 19054 ft | 278 kts | 321° |
| 2026-05-06 17:14 | 54.28900 | -1.13741 | 19058 ft | 278 kts | 321° |
| 2026-05-06 17:14 | 54.30487 | -1.15630 | 19053 ft | 279 kts | 323° |
| 2026-05-06 17:15 | 54.32188 | -1.17245 | 19057 ft | 280 kts | 328° |
| 2026-05-06 17:15 | 54.33891 | -1.18857 | 19057 ft | 280 kts | 327° |
| 2026-05-06 17:15 | 54.35586 | -1.20499 | 19056 ft | 280 kts | 327° |
| 2026-05-06 17:15 | 54.37287 | -1.22120 | 19075 ft | 280 kts | 327° |
| 2026-05-06 17:16 | 54.38991 | -1.23734 | 19076 ft | 280 kts | 327° |
| 2026-05-06 17:16 | 54.40693 | -1.25356 | 19079 ft | 280 kts | 327° |
| 2026-05-06 17:16 | 54.42394 | -1.26979 | 19080 ft | 280 kts | 327° |
| 2026-05-06 17:16 | 54.44093 | -1.28601 | 19080 ft | 279 kts | 327° |
| 2026-05-06 17:17 | 54.45789 | -1.30222 | 19083 ft | 279 kts | 327° |
| 2026-05-06 17:17 | 54.47486 | -1.31846 | 19084 ft | 279 kts | 327° |
| 2026-05-06 17:17 | 54.49182 | -1.33469 | 19083 ft | 279 kts | 327° |
| 2026-05-06 17:17 | 54.50875 | -1.35093 | 19083 ft | 279 kts | 327° |
| 2026-05-06 17:18 | 54.52568 | -1.36717 | 19085 ft | 279 kts | 327° |
| 2026-05-06 17:18 | 54.54262 | -1.38344 | 19081 ft | 279 kts | 327° |
| 2026-05-06 17:18 | 54.55910 | -1.39927 | 19082 ft | 279 kts | 327° |
| 2026-05-06 17:18 | 54.57646 | -1.41596 | 19087 ft | 278 kts | 327° |
| 2026-05-06 17:19 | 54.59333 | -1.43223 | 19005 ft | 281 kts | 327° |
| 2026-05-06 17:19 | 54.61068 | -1.44896 | 18479 ft | 289 kts | 327° |
| 2026-05-06 17:19 | 54.62833 | -1.46598 | 17897 ft | 292 kts | 327° |
| 2026-05-06 17:19 | 54.64611 | -1.48319 | 17311 ft | 294 kts | 327° |
| 2026-05-06 17:20 | 54.66332 | -1.50000 | 16745 ft | 294 kts | 326° |
| 2026-05-06 17:20 | 54.68004 | -1.52159 | 16165 ft | 291 kts | 316° |
| 2026-05-06 17:20 | 54.69478 | -1.54499 | 15730 ft | 286 kts | 311° |
| 2026-05-06 17:20 | 54.70742 | -1.57101 | 15313 ft | 281 kts | 307° |
| 2026-05-06 17:21 | 54.71977 | -1.59714 | 14865 ft | 282 kts | 307° |
| 2026-05-06 17:21 | 54.73167 | -1.62438 | 14448 ft | 286 kts | 300° |
| 2026-05-06 17:21 | 54.73936 | -1.64667 | 14053 ft | 0 kts | 305° |